Time;durP1;ratioP1;P1;durP2;ratioP2;P2;SDS_P1;SDS_P2;PMS_P1;PMS_P2;Temp;Humidity;BMP_temperature;BMP_pressure;BME280_temperature;BME280_humidity;BME280_pressure;Samples;Min_cycle;Max_cycle;Signal;HPM_P1;HPM_P2
2023/04/03 00:01:12;;;;;;;;;;;8.20;96.40;;;;;;5018527;28;20018;-87
2023/04/03 00:03:38;;;;;;;0.65;0.30;;;8.30;93.30;;;;;;5017902;28;19921;-87
2023/04/03 00:06:06;;;;;;;;;;;8.20;91.00;;;;;;5018810;28;20094;-87
2023/04/03 00:08:32;;;;;;;0.95;0.50;;;8.20;91.30;;;;;;5034689;28;19912;-88
2023/04/03 00:10:58;;;;;;;;;;;8.20;90.60;;;;;;5018800;28;20128;-87
2023/04/03 00:13:25;;;;;;;2.00;0.63;;;8.10;93.10;;;;;;5018395;28;19912;-87
2023/04/03 00:15:52;;;;;;;2.72;0.77;;;8.00;95.60;;;;;;5018272;28;20527;-88
2023/04/03 00:18:18;;;;;;;1.63;0.60;;;7.90;95.90;;;;;;5018347;28;20119;-85
2023/04/03 00:20:44;;;;;;;;;;;7.90;96.00;;;;;;5018233;28;20033;-85
2023/04/03 00:23:10;;;;;;;2.08;0.75;;;7.90;95.40;;;;;;5017891;28;19916;-85
2023/04/03 00:25:35;;;;;;;;;;;7.80;98.00;;;;;;5018098;28;20037;-85
2023/04/03 00:28:02;;;;;;;1.30;0.50;;;7.90;96.90;;;;;;5015472;28;19909;-86
2023/04/03 00:30:28;;;;;;;1.55;0.50;;;7.90;94.20;;;;;;5017105;28;20034;-85
2023/04/03 00:32:53;;;;;;;;;;;7.90;96.50;;;;;;5018015;28;20036;-84
2023/04/03 00:35:21;;;;;;;1.80;0.70;;;7.80;99.90;;;;;;5017904;28;19952;-86
2023/04/03 00:37:47;;;;;;;2.42;0.73;;;7.70;99.90;;;;;;5035142;28;20028;-85
2023/04/03 00:40:15;;;;;;;1.75;0.50;;;7.60;99.90;;;;;;5017410;28;20053;-85
2023/04/03 00:42:43;;;;;;;1.80;0.63;;;7.60;98.10;;;;;;5017345;28;20083;-85
2023/04/03 00:45:20;;;;;;;1.10;0.50;;;7.50;96.80;;;;;;5017520;28;20100;-85
2023/04/03 00:47:46;;;;;;;0.95;0.45;;;7.50;97.80;;;;;;5017305;28;20448;-85
2023/04/03 00:50:11;;;;;;;;;;;7.40;99.70;;;;;;5017267;28;20033;-84
2023/04/03 00:52:37;;;;;;;2.90;0.70;;;7.40;99.90;;;;;;5017218;28;19988;-85
2023/04/03 00:55:05;;;;;;;;;;;7.30;99.90;;;;;;5017436;28;20055;-85
2023/04/03 00:57:32;;;;;;;1.15;0.50;;;7.30;99.00;;;;;;5016970;28;19913;-85
2023/04/03 01:00:07;;;;;;;1.33;0.60;;;7.30;98.60;;;;;;5017268;28;20076;-86
2023/04/03 01:02:32;;;;;;;2.05;0.80;;;7.20;99.70;;;;;;5016987;28;20029;-87
2023/04/03 01:04:58;;;;;;;;;;;7.10;99.90;;;;;;5017625;28;20418;-88
2023/04/03 01:07:28;;;;;;;2.25;0.75;;;7.20;99.90;;;;;;5017527;28;19912;-87
2023/04/03 01:09:59;;;;;;;2.10;0.57;;;7.30;98.50;;;;;;5016714;28;20160;-87
2023/04/03 01:12:31;;;;;;;1.65;0.55;;;7.20;95.70;;;;;;5017053;28;20034;-87
2023/04/03 01:15:20;;;;;;;1.73;0.80;;;7.30;95.00;;;;;;5016697;28;20021;-86
2023/04/03 01:17:56;;;;;;;2.17;0.73;;;7.20;96.60;;;;;;5034776;28;20080;-86
2023/04/03 01:20:35;;;;;;;2.25;0.90;;;7.20;98.10;;;;;;5016683;28;20531;-85
2023/04/03 01:23:07;;;;;;;1.35;0.50;;;7.20;98.20;;;;;;5015298;28;20496;-85
2023/04/03 01:25:34;;;;;;;1.40;0.60;;;7.20;93.30;;;;;;5013798;28;20029;-85
2023/04/03 01:28:00;;;;;;;1.25;0.50;;;7.20;94.10;;;;;;5016233;28;20032;-84
2023/04/03 01:30:31;;;;;;;5.00;0.60;;;7.40;99.90;;;;;;5015972;28;20038;-84
2023/04/03 01:32:57;;;;;;;2.10;1.00;;;7.50;96.90;;;;;;5016404;28;20577;-86
2023/04/03 01:35:22;;;;;;;;;;;7.60;93.00;;;;;;5016899;28;20029;-85
2023/04/03 01:37:48;;;;;;;2.25;0.50;;;7.50;93.70;;;;;;5015933;28;19905;-84
2023/04/03 01:40:14;;;;;;;2.22;0.60;;;7.60;99.90;;;;;;5016108;28;20044;-85
2023/04/03 01:42:39;;;;;;;;;;;7.60;99.90;;;;;;5016397;28;20021;-84
2023/04/03 01:45:05;;;;;;;1.65;0.60;;;7.50;99.90;;;;;;5016348;28;19905;-85
2023/04/03 01:47:31;;;;;;;;;;;7.40;99.80;;;;;;5034194;28;20018;-84
2023/04/03 01:49:57;;;;;;;2.25;0.90;;;7.40;98.70;;;;;;5014325;28;19921;-84
2023/04/03 01:52:22;;;;;;;;;;;7.50;99.90;;;;;;5014857;28;20035;-84
2023/04/03 01:54:48;;;;;;;1.58;0.63;;;7.50;99.90;;;;;;5015408;28;20365;-84
2023/04/03 01:57:14;;;;;;;;;;;7.40;99.90;;;;;;5033262;28;20021;-84
2023/04/03 01:59:41;;;;;;;1.53;0.57;;;7.30;99.90;;;;;;5015718;28;20696;-86
2023/04/03 02:02:06;;;;;;;;;;;7.30;99.90;;;;;;5016202;28;20694;-85
2023/04/03 02:04:32;;;;;;;1.25;0.68;;;7.30;99.90;;;;;;5016156;28;19917;-86
2023/04/03 02:06:58;;;;;;;;;;;7.30;99.90;;;;;;5035512;28;20109;-86
2023/04/03 02:09:24;;;;;;;1.65;0.70;;;7.20;99.90;;;;;;5016164;28;19906;-85
2023/04/03 02:11:49;;;;;;;1.48;0.50;;;7.20;99.90;;;;;;5015699;28;20049;-85
2023/04/03 02:14:15;;;;;;;;;;;7.20;99.20;;;;;;5015733;28;20026;-85
2023/04/03 02:16:41;;;;;;;1.98;0.70;;;7.10;98.30;;;;;;5015301;28;19913;-85
2023/04/03 02:19:06;;;;;;;;;;;7.10;99.90;;;;;;5031780;28;20482;-84
2023/04/03 02:21:32;;;;;;;2.95;1.05;;;7.10;99.90;;;;;;5012730;28;19905;-84
2023/04/03 02:23:57;;;;;;;;;;;7.00;99.90;;;;;;5014568;28;20508;-84
2023/04/03 02:26:23;;;;;;;3.90;0.77;;;6.90;99.90;;;;;;5014780;28;19909;-83
2023/04/03 02:28:49;;;;;;;;;;;6.90;99.90;;;;;;5015258;28;20160;-84
2023/04/03 02:31:15;;;;;;;1.38;0.75;;;6.80;99.90;;;;;;5015056;28;20003;-84
2023/04/03 02:33:40;;;;;;;;;;;6.90;99.90;;;;;;5033320;28;20032;-84
2023/04/03 02:36:07;;;;;;;1.73;0.80;;;6.90;99.90;;;;;;5032744;28;19924;-85
2023/04/03 02:38:34;;;;;;;2.53;0.90;;;6.80;99.90;;;;;;5032497;28;20030;-84
2023/04/03 02:41:05;;;;;;;1.73;0.70;;;6.80;99.90;;;;;;5015064;28;20077;-86
2023/04/03 02:43:31;;;;;;;1.92;1.02;;;6.80;99.90;;;;;;5014721;28;20116;-85
2023/04/03 02:45:57;;;;;;;;;;;6.90;99.90;;;;;;5015463;28;20057;-85
2023/04/03 02:48:23;;;;;;;1.00;0.43;;;7.10;98.50;;;;;;5015541;28;19905;-85
2023/04/03 02:50:48;;;;;;;1.13;0.50;;;7.20;91.60;;;;;;5015875;28;20127;-85
2023/04/03 02:53:15;;;;;;;;;;;7.20;90.80;;;;;;5033751;28;20045;-86
2023/04/03 02:55:41;;;;;;;1.58;0.50;;;7.10;90.60;;;;;;5015299;28;19909;-86
2023/04/03 02:58:07;;;;;;;2.08;0.80;;;7.00;93.20;;;;;;5032998;28;20033;-84
2023/04/03 03:00:33;;;;;;;;;;;7.00;96.00;;;;;;5015513;28;20683;-83
2023/04/03 03:02:59;;;;;;;2.33;0.75;;;6.90;95.10;;;;;;5014529;28;20381;-84
2023/04/03 03:05:25;;;;;;;1.85;0.63;;;6.80;95.70;;;;;;5014727;28;20091;-86
2023/04/03 03:07:51;;;;;;;1.58;0.50;;;6.80;96.70;;;;;;5015027;28;20036;-85
2023/04/03 03:10:17;;;;;;;;;;;6.80;96.50;;;;;;5015349;28;20033;-85
2023/04/03 03:12:42;;;;;;;1.88;0.50;;;6.80;94.50;;;;;;5014999;28;20369;-85
2023/04/03 03:15:08;;;;;;;1.48;0.57;;;6.90;95.50;;;;;;5014739;28;20026;-86
2023/04/03 03:17:35;;;;;;;2.30;0.57;;;6.80;95.30;;;;;;5014764;28;20064;-85
2023/04/03 03:20:02;;;;;;;1.55;0.73;;;6.80;92.90;;;;;;5014987;28;20025;-85
2023/04/03 03:22:28;;;;;;;1.30;0.55;;;6.80;95.10;;;;;;5033254;28;20030;-89
2023/04/03 03:24:54;;;;;;;2.35;0.60;;;6.80;97.60;;;;;;5017184;28;20026;-85
2023/04/03 03:27:20;;;;;;;1.00;0.50;;;6.80;99.20;;;;;;5032440;28;20018;-85
2023/04/03 03:29:46;;;;;;;;;;;6.80;99.40;;;;;;5015096;28;20044;-85
2023/04/03 03:32:11;;;;;;;3.28;0.90;;;6.70;96.90;;;;;;5015635;28;19905;-85
2023/04/03 03:34:37;;;;;;;;;;;6.70;96.30;;;;;;5018052;28;20397;-85
2023/04/03 03:37:03;;;;;;;1.95;0.60;;;6.70;95.50;;;;;;5016263;28;20323;-85
2023/04/03 03:39:28;;;;;;;;;;;6.80;96.80;;;;;;5017426;28;20025;-82
2023/04/03 03:41:54;;;;;;;2.63;0.70;;;6.90;99.90;;;;;;5018645;28;20361;-83
2023/04/03 03:44:20;;;;;;;1.77;0.80;;;6.90;99.90;;;;;;5018467;28;20028;-83
2023/04/03 03:46:46;;;;;;;2.92;0.90;;;7.00;99.90;;;;;;5018403;28;20029;-83
2023/04/03 03:49:12;;;;;;;;;;;6.80;99.90;;;;;;5018794;28;20017;-83
2023/04/03 03:51:38;;;;;;;1.50;0.70;;;6.80;99.90;;;;;;5018110;28;20337;-82
2023/04/03 03:54:04;;;;;;;2.45;1.20;;;6.70;99.90;;;;;;5017954;28;20029;-83
2023/04/03 03:56:30;;;;;;;2.63;1.10;;;6.60;99.90;;;;;;5018286;28;20144;-82
2023/04/03 03:58:56;;;;;;;;;;;6.50;99.90;;;;;;5018119;28;20504;-82
2023/04/03 04:01:23;;;;;;;3.08;0.90;;;6.50;99.90;;;;;;5017718;28;19905;-83
2023/04/03 04:03:49;;;;;;;2.75;1.08;;;6.40;99.90;;;;;;5017894;28;20084;-83
2023/04/03 04:06:15;;;;;;;2.63;1.17;;;6.50;99.90;;;;;;5017923;28;20029;-82
2023/04/03 04:08:41;;;;;;;2.85;1.50;;;6.50;99.90;;;;;;5018021;28;20497;-83
2023/04/03 04:11:07;;;;;;;;;;;6.50;99.90;;;;;;5016401;28;20100;-83
2023/04/03 04:13:33;;;;;;;2.47;1.25;;;6.40;99.90;;;;;;5034313;28;19940;-82
2023/04/03 04:15:58;;;;;;;;;;;6.50;99.90;;;;;;5018251;28;20022;-83
2023/04/03 04:18:24;;;;;;;1.30;0.70;;;6.50;99.90;;;;;;5017948;28;19905;-83
2023/04/03 04:20:50;;;;;;;;;;;6.50;99.90;;;;;;5016283;28;20033;-84
2023/04/03 04:23:17;;;;;;;1.55;0.50;;;6.50;99.90;;;;;;5017750;28;20328;-83
2023/04/03 04:25:45;;;;;;;4.65;0.80;;;6.50;99.90;;;;;;5017824;28;20116;-83
2023/04/03 04:28:12;;;;;;;3.08;1.42;;;6.60;99.90;;;;;;5016405;28;20026;-84
2023/04/03 04:30:38;;;;;;;3.25;1.52;;;6.60;99.90;;;;;;5016394;28;20041;-82
2023/04/03 04:33:03;;;;;;;;;;;6.60;99.90;;;;;;5017189;28;20028;-83
2023/04/03 04:35:29;;;;;;;2.00;0.60;;;6.70;99.90;;;;;;5019251;28;20000;-82
2023/04/03 04:37:55;;;;;;;8.30;1.17;;;6.80;99.90;;;;;;5017392;28;20029;-83
2023/04/03 04:40:20;;;;;;;;;;;6.80;99.90;;;;;;5032986;28;20490;-81
2023/04/03 04:42:46;;;;;;;2.05;0.80;;;6.70;99.90;;;;;;5015015;28;19912;-81
2023/04/03 04:45:12;;;;;;;2.55;0.80;;;6.60;99.90;;;;;;5013345;28;20488;-80
2023/04/03 04:47:37;;;;;;;;;;;6.60;99.90;;;;;;5015373;28;20379;-83
2023/04/03 04:50:03;;;;;;;1.75;0.73;;;6.60;99.90;;;;;;5032622;28;19971;-84
2023/04/03 04:52:29;;;;;;;;;;;6.60;99.90;;;;;;5032971;28;20284;-83
2023/04/03 04:54:55;;;;;;;1.73;0.70;;;6.60;99.40;;;;;;5014071;28;20365;-84
2023/04/03 04:57:20;;;;;;;;;;;6.60;96.80;;;;;;5014677;28;20026;-83
2023/04/03 04:59:46;;;;;;;1.83;0.63;;;6.60;95.40;;;;;;5014528;28;20455;-83
2023/04/03 05:02:12;;;;;;;;;;;6.70;93.80;;;;;;5014566;28;20026;-83
2023/04/03 05:04:37;;;;;;;2.50;0.60;;;6.70;95.60;;;;;;5013739;28;19949;-84
2023/04/03 05:07:03;;;;;;;;;;;6.60;94.70;;;;;;5014011;28;20018;-81
2023/04/03 05:09:29;;;;;;;3.85;0.80;;;6.70;94.40;;;;;;5014372;28;19913;-81
2023/04/03 05:11:55;;;;;;;;;;;6.80;93.30;;;;;;5013505;28;20037;-81
2023/04/03 05:14:20;;;;;;;1.63;0.40;;;7.10;99.80;;;;;;5014367;28;19916;-82
2023/04/03 05:16:47;;;;;;;;;;;7.10;99.90;;;;;;5014096;28;20021;-81
2023/04/03 05:19:12;;;;;;;1.20;0.60;;;7.10;99.90;;;;;;5013517;28;20297;-80
2023/04/03 05:21:38;;;;;;;;;;;7.10;99.90;;;;;;5034173;28;20030;-83
2023/04/03 05:24:04;;;;;;;1.00;0.45;;;6.90;99.90;;;;;;5014863;28;19980;-82
2023/04/03 05:26:31;;;;;;;;;;;6.90;99.90;;;;;;5016151;28;20864;-83
2023/04/03 05:28:56;;;;;;;3.90;1.27;;;6.90;99.90;;;;;;5015998;28;19951;-84
2023/04/03 05:31:22;;;;;;;;;;;7.00;96.00;;;;;;5016769;28;20077;-85
2023/04/03 05:33:48;;;;;;;13.73;5.18;;;7.00;99.90;;;;;;5014889;28;20324;-86
2023/04/03 05:36:13;;;;;;;;;;;7.00;99.90;;;;;;5015028;28;20025;-85
2023/04/03 05:38:39;;;;;;;2.30;0.68;;;7.00;99.90;;;;;;5014656;28;19909;-88
2023/04/03 05:41:05;;;;;;;;;;;7.10;93.30;;;;;;5015305;28;20030;-84
2023/04/03 05:43:31;;;;;;;0.70;0.30;;;7.20;85.00;;;;;;5015273;28;19913;-86
2023/04/03 05:45:57;;;;;;;1.48;0.60;;;7.40;82.10;;;;;;5015546;28;20037;-85
2023/04/03 05:48:22;;;;;;;;;;;7.30;80.20;;;;;;5016114;28;20083;-85
2023/04/03 05:50:48;;;;;;;1.23;0.50;;;7.40;80.50;;;;;;5013771;28;19917;-84
2023/04/03 05:53:16;;;;;;;;;;;7.50;79.60;;;;;;5015954;28;20071;-85
2023/04/03 05:55:42;;;;;;;0.45;0.20;;;7.60;80.20;;;;;;5016041;28;19959;-86
2023/04/03 05:58:08;;;;;;;;;;;7.60;76.20;;;;;;5016833;28;20017;-84
2023/04/03 06:00:33;;;;;;;0.95;0.43;;;7.70;76.90;;;;;;5014503;28;19905;-85
2023/04/03 06:02:59;;;;;;;;;;;7.60;77.90;;;;;;5013770;28;20421;-84
2023/04/03 06:05:25;;;;;;;3.20;0.60;;;7.60;76.90;;;;;;5013723;28;20300;-86
2023/04/03 06:07:50;;;;;;;;;;;7.50;78.30;;;;;;5014869;28;20513;-84
2023/04/03 06:10:16;;;;;;;0.35;0.20;;;7.70;76.60;;;;;;5014121;28;19917;-84
2023/04/03 06:12:41;;;;;;;;;;;7.90;72.70;;;;;;5014553;28;20022;-85
2023/04/03 06:15:09;;;;;;;1.02;0.52;;;7.80;74.50;;;;;;5013895;28;19913;-85
2023/04/03 06:17:36;;;;;;;0.70;0.30;;;7.80;74.90;;;;;;5014613;28;20366;-82
2023/04/03 06:20:03;;;;;;;1.02;0.20;;;7.80;74.40;;;;;;5014802;28;20504;-85
2023/04/03 06:22:29;;;;;;;1.65;0.40;;;7.90;71.10;;;;;;5014515;28;20051;-85
2023/04/03 06:24:56;;;;;;;0.50;0.30;;;7.80;73.00;;;;;;5014382;28;20211;-84
2023/04/03 06:27:22;;;;;;;0.90;0.28;;;8.30;69.80;;;;;;5013336;28;20035;-82
2023/04/03 06:29:48;;;;;;;;;;;8.80;69.50;;;;;;5014407;28;20022;-83
2023/04/03 06:32:15;;;;;;;0.73;0.28;;;9.50;66.20;;;;;;5014704;28;19905;-86
2023/04/03 06:34:41;;;;;;;0.50;0.30;;;10.30;63.70;;;;;;5014998;28;20124;-86
2023/04/03 06:37:17;;;;;;;2.10;0.60;;;11.00;59.70;;;;;;5015104;28;20039;-86
2023/04/03 06:39:43;;;;;;;0.40;0.20;;;11.70;57.90;;;;;;5013564;28;20032;-85
2023/04/03 06:42:08;;;;;;;;;;;12.50;54.90;;;;;;5013077;28;20037;-85
2023/04/03 06:44:34;;;;;;;0.77;0.25;;;12.80;50.90;;;;;;5013824;28;19909;-85
2023/04/03 06:47:00;;;;;;;0.73;0.30;;;12.40;51.00;;;;;;5014669;28;20032;-83
2023/04/03 06:49:26;;;;;;;;;;;11.90;51.00;;;;;;5015175;28;20033;-84
2023/04/03 06:51:51;;;;;;;0.20;0.20;;;11.10;51.80;;;;;;5014477;28;19913;-86
2023/04/03 06:54:18;;;;;;;;;;;10.40;54.10;;;;;;5031131;28;20100;-84
2023/04/03 06:56:44;;;;;;;3.55;0.30;;;9.80;55.40;;;;;;5013781;28;19964;-86
2023/04/03 06:59:10;;;;;;;;;;;9.70;56.90;;;;;;5013977;28;20025;-85
2023/04/03 07:01:35;;;;;;;0.50;0.20;;;9.50;55.30;;;;;;5011727;28;19909;-85
2023/04/03 07:04:01;;;;;;;;;;;9.30;56.30;;;;;;5014765;28;20144;-85
2023/04/03 07:06:27;;;;;;;0.57;0.20;;;9.20;57.30;;;;;;5014603;28;19909;-85
2023/04/03 07:08:53;;;;;;;;;;;9.10;58.40;;;;;;5014918;28;20026;-85
2023/04/03 07:11:18;;;;;;;0.50;0.20;;;9.60;56.60;;;;;;5012593;28;19913;-85
2023/04/03 07:13:44;;;;;;;;;;;9.90;56.50;;;;;;5013350;28;20032;-84
2023/04/03 07:16:10;;;;;;;0.30;0.20;;;9.90;55.40;;;;;;5032067;28;19905;-86
2023/04/03 07:18:36;;;;;;;0.73;0.30;;;9.80;56.20;;;;;;5013987;28;20478;-85
2023/04/03 07:21:02;;;;;;;;;;;9.90;56.70;;;;;;5031499;28;20033;-86
2023/04/03 07:23:27;;;;;;;0.52;0.20;;;9.90;53.90;;;;;;5014135;28;19909;-85
2023/04/03 07:25:54;;;;;;;;;;;9.90;54.10;;;;;;5014524;28;20040;-83
2023/04/03 07:28:22;;;;;;;0.50;0.20;;;9.90;54.00;;;;;;5030424;28;19905;-84
2023/04/03 07:31:07;;;;;;;2.92;0.40;;;9.70;55.30;;;;;;5012519;28;20040;-85
2023/04/03 07:33:34;;;;;;;3.92;0.30;;;9.90;55.30;;;;;;5014041;28;20472;-85
2023/04/03 07:36:01;;;;;;;0.93;0.50;;;10.50;56.20;;;;;;5012761;28;20025;-86
2023/04/03 07:38:27;;;;;;;1.25;0.32;;;11.20;53.10;;;;;;5012665;28;20052;-84
2023/04/03 07:40:52;;;;;;;;;;;11.80;50.40;;;;;;5013631;28;20464;-85
2023/04/03 07:43:20;;;;;;;0.55;0.20;;;12.00;49.00;;;;;;5031217;28;19905;-84
2023/04/03 07:45:49;;;;;;;2.95;0.70;;;11.80;48.70;;;;;;5011882;28;20116;-85
2023/04/03 07:48:17;;;;;;;3.10;1.05;;;11.50;49.20;;;;;;5012291;28;20462;-86
2023/04/03 07:50:43;;;;;;;1.23;0.40;;;11.30;51.70;;;;;;5013265;28;20064;-86
2023/04/03 07:53:09;;;;;;;0.57;0.30;;;11.80;50.50;;;;;;5012081;28;20030;-86
2023/04/03 07:55:37;;;;;;;;;;;12.20;47.90;;;;;;5012418;28;20558;-85
2023/04/03 07:58:03;;;;;;;1.38;0.28;;;12.30;47.60;;;;;;5012085;28;19905;-83
2023/04/03 08:00:29;;;;;;;;;;;12.80;47.80;;;;;;5013648;28;20029;-83
2023/04/03 08:02:55;;;;;;;0.77;0.30;;;13.00;46.20;;;;;;5011853;28;19909;-84
2023/04/03 08:05:21;;;;;;;;;;;13.00;47.00;;;;;;5029132;28;20068;-85
2023/04/03 08:07:47;;;;;;;0.77;0.40;;;13.60;44.60;;;;;;5013328;28;19905;-84
2023/04/03 08:10:14;;;;;;;0.70;0.30;;;13.90;45.40;;;;;;5012727;28;20042;-85
2023/04/03 08:12:40;;;;;;;1.67;0.30;;;14.50;43.10;;;;;;5012830;28;20087;-85
2023/04/03 08:15:07;;;;;;;;;;;15.20;41.70;;;;;;5013818;28;20116;-85
2023/04/03 08:17:32;;;;;;;0.43;0.30;;;15.30;42.70;;;;;;5012134;28;19905;-84
2023/04/03 08:19:58;;;;;;;1.20;0.35;;;16.00;40.80;;;;;;5014343;28;20040;-84
2023/04/03 08:22:24;;;;;;;1.20;0.50;;;16.30;39.80;;;;;;5015447;28;20017;-83
2023/04/03 08:24:50;;;;;;;1.33;0.52;;;16.50;39.10;;;;;;5015632;28;20033;-85
2023/04/03 08:27:16;;;;;;;1.10;0.50;;;16.70;38.80;;;;;;5034778;28;20025;-86
2023/04/03 08:29:41;;;;;;;0.85;0.40;;;16.80;38.30;;;;;;5014918;28;20519;-85
2023/04/03 08:32:07;;;;;;;1.23;0.50;;;16.80;37.60;;;;;;5031968;28;20573;-83
2023/04/03 08:34:34;;;;;;;0.75;0.38;;;16.40;37.60;;;;;;5015992;28;20028;-85
2023/04/03 08:37:01;;;;;;;0.30;0.30;;;16.30;38.00;;;;;;5014599;28;20528;-85
2023/04/03 08:39:31;;;;;;;0.57;0.22;;;16.30;37.90;;;;;;5032256;28;20037;-84
2023/04/03 08:42:01;;;;;;;1.33;0.60;;;16.30;38.10;;;;;;5014579;28;20389;-84
2023/04/03 08:44:55;;;;;;;4.15;0.57;;;16.30;39.10;;;;;;5013843;28;20485;-84
2023/04/03 08:47:35;;;;;;;1.08;0.55;;;16.30;38.90;;;;;;5014342;28;20091;-84
2023/04/03 08:50:11;;;;;;;1.48;0.50;;;16.40;38.20;;;;;;5014524;28;20038;-84
2023/04/03 08:52:41;;;;;;;1.33;0.65;;;16.70;36.10;;;;;;5032426;28;20041;-85
2023/04/03 08:55:31;;;;;;;2.83;0.65;;;16.40;36.90;;;;;;5015251;28;20029;-85
2023/04/03 08:58:19;;;;;;;0.32;0.22;;;16.10;37.50;;;;;;5015419;28;20509;-85
2023/04/03 09:00:54;;;;;;;1.95;0.38;;;16.80;36.10;;;;;;5014411;28;20033;-86
2023/04/03 09:03:21;;;;;;;1.58;0.40;;;16.60;37.20;;;;;;5032026;28;20440;-84
2023/04/03 09:05:55;;;;;;;0.50;0.30;;;16.60;36.70;;;;;;5014095;28;20049;-84
2023/04/03 09:08:21;;;;;;;0.30;0.20;;;16.60;35.80;;;;;;5014091;28;20053;-84
2023/04/03 09:10:46;;;;;;;0.30;0.20;;;16.20;36.80;;;;;;5013747;28;20663;-86
2023/04/03 09:13:16;;;;;;;0.30;0.20;;;16.40;36.40;;;;;;5015072;28;20021;-84
2023/04/03 09:15:43;;;;;;;1.20;0.40;;;16.30;37.00;;;;;;5016295;28;20120;-85
2023/04/03 09:18:30;;;;;;;1.35;0.35;;;16.00;37.30;;;;;;5014084;28;20029;-85
2023/04/03 09:21:20;;;;;;;0.43;0.22;;;15.50;37.70;;;;;;5013219;28;20486;-84
2023/04/03 09:23:58;;;;;;;3.22;0.30;;;15.90;36.90;;;;;;5013878;28;20052;-84
2023/04/03 09:26:40;;;;;;;0.70;0.30;;;15.30;36.70;;;;;;5031856;28;20030;-83
2023/04/03 09:29:08;;;;;;;1.80;0.40;;;14.40;37.80;;;;;;5015288;28;20034;-85
2023/04/03 09:31:39;;;;;;;2.88;0.30;;;13.90;39.40;;;;;;5012255;28;20604;-83
2023/04/03 09:34:35;;;;;;;0.70;0.20;;;14.30;40.40;;;;;;5031487;28;20191;-84
2023/04/03 09:37:05;;;;;;;2.72;0.88;;;14.30;39.20;;;;;;5032583;28;20414;-84
2023/04/03 09:39:53;;;;;;;0.70;0.30;;;14.70;40.00;;;;;;5031614;28;20025;-84
2023/04/03 09:42:22;;;;;;;1.67;0.40;;;15.10;40.20;;;;;;5014747;28;20029;-84
2023/04/03 09:45:22;;;;;;;1.30;0.50;;;14.80;42.10;;;;;;5032491;28;20053;-85
2023/04/03 09:47:48;;;;;;;1.40;0.70;;;15.20;41.00;;;;;;5012712;28;20060;-85
2023/04/03 09:50:14;;;;;;;1.95;0.77;;;16.10;39.40;;;;;;5030765;28;20053;-82
2023/04/03 09:52:45;;;;;;;1.00;0.40;;;16.70;39.00;;;;;;5015021;28;20459;-84
2023/04/03 09:55:17;;;;;;;1.17;0.50;;;16.40;37.90;;;;;;5011928;28;20072;-83
2023/04/03 09:57:44;;;;;;;1.40;0.50;;;16.80;36.50;;;;;;5015112;28;20061;-85
2023/04/03 10:00:21;;;;;;;2.65;1.10;;;17.50;36.40;;;;;;5015547;28;20036;-84
2023/04/03 10:02:51;;;;;;;1.65;0.60;;;17.50;37.00;;;;;;5015227;28;20461;-84
2023/04/03 10:05:31;;;;;;;2.40;0.68;;;17.80;35.00;;;;;;5015419;28;20060;-85
2023/04/03 10:08:23;;;;;;;1.75;0.70;;;16.70;35.30;;;;;;5014823;28;20028;-83
2023/04/03 10:11:10;;;;;;;1.40;0.40;;;16.70;36.40;;;;;;5003795;28;20053;-83
2023/04/03 10:13:48;;;;;;;0.88;0.40;;;17.20;35.60;;;;;;5013924;28;20141;-85
2023/04/03 10:16:22;;;;;;;0.40;0.20;;;17.70;36.90;;;;;;5012471;28;20039;-84
2023/04/03 10:19:01;;;;;;;1.55;0.50;;;17.80;35.30;;;;;;5030907;28;20025;-83
2023/04/03 10:21:39;;;;;;;1.52;0.40;;;16.90;35.30;;;;;;5013796;28;20114;-83
2023/04/03 10:24:17;;;;;;;0.80;0.40;;;15.90;37.20;;;;;;5014229;28;20033;-84
2023/04/03 10:26:58;;;;;;;0.82;0.40;;;15.40;36.90;;;;;;5013946;28;20120;-84
2023/04/03 10:29:36;;;;;;;1.00;0.30;;;14.80;37.70;;;;;;5013997;28;20029;-85
2023/04/03 10:32:24;;;;;;;1.25;0.30;;;14.50;37.80;;;;;;5015017;28;20056;-85
2023/04/03 10:35:01;;;;;;;4.72;0.30;;;13.70;39.10;;;;;;5015433;28;20029;-85
2023/04/03 10:37:36;;;;;;;1.90;0.90;;;13.40;40.00;;;;;;5011301;28;20040;-85
2023/04/03 10:40:11;;;;;;;1.45;0.50;;;13.40;41.40;;;;;;5014787;28;20120;-83
2023/04/03 10:42:44;;;;;;;1.20;0.50;;;13.20;42.20;;;;;;5014445;28;20025;-84
2023/04/03 10:45:19;;;;;;;0.77;0.40;;;13.00;40.20;;;;;;5014953;28;20025;-84
2023/04/03 10:47:54;;;;;;;1.55;0.57;;;12.70;40.50;;;;;;5014367;28;20025;-84
2023/04/03 10:50:52;;;;;;;2.05;0.80;;;12.60;40.20;;;;;;5012928;28;20033;-84
2023/04/03 10:53:43;;;;;;;1.02;0.40;;;12.30;42.50;;;;;;5015030;28;20048;-84
2023/04/03 10:57:01;;;;;;;1.00;0.40;;;12.30;41.30;;;;;;5015018;28;20083;-84
2023/04/03 10:59:50;;;;;;;1.80;0.60;;;12.20;40.90;;;;;;5027544;28;20505;-85
2023/04/03 11:02:41;;;;;;;1.48;0.80;;;12.30;42.00;;;;;;5014655;28;20120;-85
2023/04/03 11:05:40;;;;;;;2.03;0.93;;;12.20;42.30;;;;;;5081751;28;20396;-86
2023/04/03 11:08:26;;;;;;;1.35;0.63;;;12.30;43.30;;;;;;5047646;28;20037;-85
2023/04/03 11:10:56;;;;;;;1.75;0.65;;;12.50;42.90;;;;;;5047310;28;20048;-84
2023/04/03 11:13:45;;;;;;;2.10;0.93;;;12.60;42.20;;;;;;5048066;28;20028;-84
2023/04/03 11:16:19;;;;;;;1.50;0.70;;;12.70;42.90;;;;;;5047707;28;20029;-87
2023/04/03 11:18:56;;;;;;;1.00;0.40;;;12.70;42.90;;;;;;5048480;28;20033;-87
2023/04/03 11:21:24;;;;;;;0.45;0.30;;;12.60;40.10;;;;;;5048471;28;20024;-86
2023/04/03 11:23:51;;;;;;;0.90;0.45;;;12.70;39.10;;;;;;5047833;28;20041;-88
2023/04/03 11:26:21;;;;;;;0.70;0.40;;;12.50;39.20;;;;;;5048262;28;20026;-87
2023/04/03 11:28:53;;;;;;;1.33;0.50;;;12.30;42.20;;;;;;5048441;28;20421;-87
2023/04/03 11:32:02;;;;;;;2.33;1.00;;;12.30;42.10;;;;;;5047529;28;20029;-84
2023/04/03 11:34:28;;;;;;;3.60;0.60;;;12.50;41.00;;;;;;5048860;28;20025;-87
2023/04/03 11:37:00;;;;;;;;;;;12.20;40.50;;;;;;5048769;28;20067;-84
2023/04/03 11:39:31;;;;;;;0.93;0.40;;;12.30;41.20;;;;;;5047596;28;19909;-87
2023/04/03 11:42:16;;;;;;;1.75;0.60;;;12.40;40.30;;;;;;5047677;28;20035;-89
2023/04/03 11:44:42;;;;;;;1.55;0.63;;;12.30;41.60;;;;;;5049233;28;20063;-86
2023/04/03 11:47:09;;;;;;;;;;;12.50;41.60;;;;;;5048470;28;20478;-88
2023/04/03 11:49:53;;;;;;;0.82;0.38;;;12.60;42.00;;;;;;5049010;28;19905;-87
2023/04/03 11:52:38;;;;;;;1.38;0.30;;;12.70;40.80;;;;;;5047581;28;20029;-87
2023/04/03 11:55:29;;;;;;;1.65;0.60;;;12.90;39.40;;;;;;5047636;28;20493;-89
2023/04/03 11:57:58;;;;;;;2.08;0.55;;;12.60;40.00;;;;;;5047518;28;20068;-87
2023/04/03 12:00:50;;;;;;;1.48;0.75;;;12.60;39.50;;;;;;5047830;28;20030;-86
2023/04/03 12:03:26;;;;;;;2.50;1.00;;;12.40;38.90;;;;;;5047524;28;20076;-86
2023/04/03 12:05:53;;;;;;;4.18;1.77;;;12.10;41.90;;;;;;5047350;28;20025;-87
2023/04/03 12:08:27;;;;;;;0.80;0.40;;;12.00;41.40;;;;;;5047378;28;20032;-86
2023/04/03 12:11:14;;;;;;;20.15;9.35;;;12.30;39.90;;;;;;5047088;28;20025;-84
2023/04/03 12:13:40;;;;;;;6.25;2.83;;;12.30;41.30;;;;;;5046375;28;20132;-85
2023/04/03 12:16:06;;;;;;;;;;;12.20;40.80;;;;;;5038440;28;20432;-87
2023/04/03 12:18:53;;;;;;;1.52;0.52;;;12.30;41.20;;;;;;5034677;28;19909;-86
2023/04/03 12:21:34;;;;;;;0.73;0.52;;;12.40;40.80;;;;;;5033381;28;20034;-87
2023/04/03 12:24:02;;;;;;;1.65;0.90;;;12.20;41.40;;;;;;5034276;28;20130;-85
2023/04/03 12:26:51;;;;;;;1.10;0.57;;;12.00;41.80;;;;;;5033086;28;20049;-86
2023/04/03 12:29:41;;;;;;;1.25;0.52;;;12.20;41.30;;;;;;5032903;28;20025;-86
2023/04/03 12:32:35;;;;;;;2.50;0.70;;;12.30;42.10;;;;;;5034286;28;20033;-85
2023/04/03 12:35:39;;;;;;;3.13;0.82;;;12.20;41.50;;;;;;5034591;28;20022;-86
2023/04/03 12:38:33;;;;;;;2.92;1.50;;;12.10;41.50;;;;;;5033557;28;20021;-86
2023/04/03 12:41:25;;;;;;;6.10;3.33;;;12.00;43.00;;;;;;5034778;28;20440;-86
2023/04/03 12:44:18;;;;;;;3.08;1.02;;;12.10;42.30;;;;;;5033632;28;20029;-86
2023/04/03 12:46:47;;;;;;;1.65;0.60;;;12.00;41.90;;;;;;5034707;28;20573;-86
2023/04/03 12:49:44;;;;;;;4.15;1.90;;;11.80;40.90;;;;;;5033651;28;20694;-86
2023/04/03 12:52:31;;;;;;;7.13;3.78;;;11.80;41.50;;;;;;5031414;28;20524;-84
2023/04/03 12:55:00;;;;;;;3.75;2.03;;;11.80;40.60;;;;;;5032808;28;20517;-86
2023/04/03 12:57:27;;;;;;;1.83;0.70;;;11.70;40.40;;;;;;5032725;28;20068;-84
2023/04/03 12:59:54;;;;;;;4.28;2.15;;;11.50;40.90;;;;;;5032645;28;20494;-84
2023/04/03 13:02:33;;;;;;;13.63;1.75;;;11.50;40.50;;;;;;5032575;28;20026;-85
2023/04/03 13:05:06;;;;;;;2.08;0.90;;;11.40;41.80;;;;;;5032549;28;20045;-85
2023/04/03 13:07:37;;;;;;;4.38;1.60;;;11.40;41.70;;;;;;5032379;28;20029;-85
2023/04/03 13:10:07;;;;;;;1.58;0.75;;;11.40;42.00;;;;;;5032928;28;20075;-85
2023/04/03 13:12:34;;;;;;;2.58;1.10;;;11.50;41.40;;;;;;5032789;28;20393;-86
2023/04/03 13:15:12;;;;;;;2.78;0.60;;;11.30;42.80;;;;;;5034930;28;20025;-85
2023/04/03 13:17:42;;;;;;;1.92;0.50;;;11.30;42.30;;;;;;5030901;28;20034;-84
2023/04/03 13:20:22;;;;;;;2.47;0.80;;;11.20;42.80;;;;;;5032672;28;20030;-85
2023/04/03 13:22:56;;;;;;;1.80;0.50;;;11.20;44.40;;;;;;5030593;28;20033;-86
2023/04/03 13:25:24;;;;;;;0.82;0.32;;;11.20;43.50;;;;;;5031126;28;20040;-85
2023/04/03 13:27:50;;;;;;;1.95;0.75;;;11.10;44.40;;;;;;5028674;28;20037;-86